sensor_id;sensor_type;location;lat;lon;timestamp;P1;durP1;ratioP1;P2;durP2;ratioP2
21152;SDS011;10734;44.792;20.482;2023-05-10T00:02:25;17.33;;;8.60;;
21152;SDS011;10734;44.792;20.482;2023-05-10T00:04:52;17.17;;;9.27;;
21152;SDS011;10734;44.792;20.482;2023-05-10T00:07:19;22.40;;;9.40;;
21152;SDS011;10734;44.792;20.482;2023-05-10T00:09:45;21.42;;;8.32;;
21152;SDS011;10734;44.792;20.482;2023-05-10T00:12:12;16.38;;;8.68;;
21152;SDS011;10734;44.792;20.482;2023-05-10T00:14:38;18.02;;;8.77;;
21152;SDS011;10734;44.792;20.482;2023-05-10T00:17:05;15.70;;;8.10;;
21152;SDS011;10734;44.792;20.482;2023-05-10T00:19:32;12.50;;;7.57;;
21152;SDS011;10734;44.792;20.482;2023-05-10T00:21:58;10.55;;;7.18;;
21152;SDS011;10734;44.792;20.482;2023-05-10T00:24:25;10.70;;;6.53;;
21152;SDS011;10734;44.792;20.482;2023-05-10T00:26:51;12.07;;;7.15;;
21152;SDS011;10734;44.792;20.482;2023-05-10T00:29:18;10.57;;;6.85;;
21152;SDS011;10734;44.792;20.482;2023-05-10T00:31:44;10.18;;;6.20;;
21152;SDS011;10734;44.792;20.482;2023-05-10T00:34:11;13.07;;;6.68;;
21152;SDS011;10734;44.792;20.482;2023-05-10T00:36:37;11.57;;;6.15;;
21152;SDS011;10734;44.792;20.482;2023-05-10T00:39:04;11.82;;;5.82;;
21152;SDS011;10734;44.792;20.482;2023-05-10T00:41:30;10.23;;;5.60;;
21152;SDS011;10734;44.792;20.482;2023-05-10T00:43:58;8.30;;;5.53;;
21152;SDS011;10734;44.792;20.482;2023-05-10T00:46:25;13.35;;;6.15;;
21152;SDS011;10734;44.792;20.482;2023-05-10T00:48:52;13.32;;;5.32;;
21152;SDS011;10734;44.792;20.482;2023-05-10T00:51:18;8.02;;;5.63;;
21152;SDS011;10734;44.792;20.482;2023-05-10T00:53:45;8.48;;;5.43;;
21152;SDS011;10734;44.792;20.482;2023-05-10T00:56:12;12.02;;;5.13;;
21152;SDS011;10734;44.792;20.482;2023-05-10T00:58:39;6.93;;;5.15;;
21152;SDS011;10734;44.792;20.482;2023-05-10T01:01:06;6.43;;;5.20;;
21152;SDS011;10734;44.792;20.482;2023-05-10T01:03:33;8.82;;;5.60;;
21152;SDS011;10734;44.792;20.482;2023-05-10T01:05:59;10.05;;;5.15;;
21152;SDS011;10734;44.792;20.482;2023-05-10T01:08:26;8.00;;;5.38;;
21152;SDS011;10734;44.792;20.482;2023-05-10T01:10:53;11.55;;;5.63;;
21152;SDS011;10734;44.792;20.482;2023-05-10T01:15:55;10.27;;;5.05;;
21152;SDS011;10734;44.792;20.482;2023-05-10T01:18:22;7.90;;;4.93;;
21152;SDS011;10734;44.792;20.482;2023-05-10T01:20:53;8.20;;;5.22;;
21152;SDS011;10734;44.792;20.482;2023-05-10T01:34:02;6.70;;;4.30;;
21152;SDS011;10734;44.792;20.482;2023-05-10T01:36:34;7.80;;;4.78;;
21152;SDS011;10734;44.792;20.482;2023-05-10T01:44:14;6.10;;;4.20;;
21152;SDS011;10734;44.792;20.482;2023-05-10T01:46:42;7.00;;;4.57;;
21152;SDS011;10734;44.792;20.482;2023-05-10T01:49:11;7.90;;;3.97;;
21152;SDS011;10734;44.792;20.482;2023-05-10T01:51:47;4.95;;;4.03;;
21152;SDS011;10734;44.792;20.482;2023-05-10T01:54:14;6.15;;;4.43;;
21152;SDS011;10734;44.792;20.482;2023-05-10T01:56:42;5.50;;;4.47;;
21152;SDS011;10734;44.792;20.482;2023-05-10T01:59:11;8.43;;;4.53;;
21152;SDS011;10734;44.792;20.482;2023-05-10T02:01:39;7.93;;;4.72;;
21152;SDS011;10734;44.792;20.482;2023-05-10T02:04:07;8.90;;;4.15;;
21152;SDS011;10734;44.792;20.482;2023-05-10T02:06:35;7.93;;;4.32;;
21152;SDS011;10734;44.792;20.482;2023-05-10T02:09:02;8.60;;;4.25;;
21152;SDS011;10734;44.792;20.482;2023-05-10T02:11:29;4.90;;;4.00;;
21152;SDS011;10734;44.792;20.482;2023-05-10T02:13:57;6.53;;;4.32;;
21152;SDS011;10734;44.792;20.482;2023-05-10T02:16:24;5.35;;;4.10;;
21152;SDS011;10734;44.792;20.482;2023-05-10T02:18:52;5.97;;;4.30;;
21152;SDS011;10734;44.792;20.482;2023-05-10T02:21:19;10.82;;;5.53;;
21152;SDS011;10734;44.792;20.482;2023-05-10T02:23:46;8.30;;;4.68;;
21152;SDS011;10734;44.792;20.482;2023-05-10T02:26:14;5.80;;;4.45;;
21152;SDS011;10734;44.792;20.482;2023-05-10T02:28:42;6.78;;;4.57;;
21152;SDS011;10734;44.792;20.482;2023-05-10T02:31:09;5.78;;;4.50;;
21152;SDS011;10734;44.792;20.482;2023-05-10T02:33:37;6.97;;;4.30;;
21152;SDS011;10734;44.792;20.482;2023-05-10T02:36:04;6.78;;;4.28;;
21152;SDS011;10734;44.792;20.482;2023-05-10T02:38:32;6.30;;;4.78;;
21152;SDS011;10734;44.792;20.482;2023-05-10T02:40:59;6.28;;;4.80;;
21152;SDS011;10734;44.792;20.482;2023-05-10T02:43:26;7.13;;;5.28;;
21152;SDS011;10734;44.792;20.482;2023-05-10T02:45:54;9.32;;;5.65;;
21152;SDS011;10734;44.792;20.482;2023-05-10T02:48:21;5.40;;;4.80;;
21152;SDS011;10734;44.792;20.482;2023-05-10T02:50:48;11.48;;;5.85;;
21152;SDS011;10734;44.792;20.482;2023-05-10T02:53:22;7.90;;;5.22;;
21152;SDS011;10734;44.792;20.482;2023-05-10T02:55:49;6.22;;;4.68;;
21152;SDS011;10734;44.792;20.482;2023-05-10T02:58:16;7.07;;;4.45;;
21152;SDS011;10734;44.792;20.482;2023-05-10T03:00:45;5.53;;;4.90;;
21152;SDS011;10734;44.792;20.482;2023-05-10T03:03:12;8.63;;;5.28;;
21152;SDS011;10734;44.792;20.482;2023-05-10T03:05:39;9.10;;;4.90;;
21152;SDS011;10734;44.792;20.482;2023-05-10T03:08:05;6.85;;;5.25;;
21152;SDS011;10734;44.792;20.482;2023-05-10T03:10:32;8.35;;;5.40;;
21152;SDS011;10734;44.792;20.482;2023-05-10T03:20:51;7.35;;;5.40;;
21152;SDS011;10734;44.792;20.482;2023-05-10T03:23:27;12.23;;;6.03;;
21152;SDS011;10734;44.792;20.482;2023-05-10T03:25:53;11.77;;;5.65;;
21152;SDS011;10734;44.792;20.482;2023-05-10T03:28:20;7.85;;;5.85;;
21152;SDS011;10734;44.792;20.482;2023-05-10T03:30:47;9.07;;;6.47;;
21152;SDS011;10734;44.792;20.482;2023-05-10T03:33:13;9.77;;;6.18;;
21152;SDS011;10734;44.792;20.482;2023-05-10T03:35:40;12.50;;;6.80;;
21152;SDS011;10734;44.792;20.482;2023-05-10T03:38:06;10.52;;;6.45;;
21152;SDS011;10734;44.792;20.482;2023-05-10T03:40:33;10.65;;;6.50;;
21152;SDS011;10734;44.792;20.482;2023-05-10T03:42:59;9.27;;;6.20;;
21152;SDS011;10734;44.792;20.482;2023-05-10T03:45:26;9.80;;;6.50;;
21152;SDS011;10734;44.792;20.482;2023-05-10T03:47:53;11.93;;;5.78;;
21152;SDS011;10734;44.792;20.482;2023-05-10T03:50:20;8.02;;;6.00;;
21152;SDS011;10734;44.792;20.482;2023-05-10T03:52:47;10.18;;;6.40;;
21152;SDS011;10734;44.792;20.482;2023-05-10T03:55:14;10.57;;;6.20;;
21152;SDS011;10734;44.792;20.482;2023-05-10T03:57:40;15.55;;;6.60;;
21152;SDS011;10734;44.792;20.482;2023-05-10T04:00:07;14.35;;;5.53;;
21152;SDS011;10734;44.792;20.482;2023-05-10T04:02:34;9.68;;;6.30;;
21152;SDS011;10734;44.792;20.482;2023-05-10T04:05:01;8.30;;;5.97;;
21152;SDS011;10734;44.792;20.482;2023-05-10T04:07:28;13.05;;;6.75;;
21152;SDS011;10734;44.792;20.482;2023-05-10T04:09:54;14.00;;;6.85;;
21152;SDS011;10734;44.792;20.482;2023-05-10T04:12:21;12.95;;;6.78;;
21152;SDS011;10734;44.792;20.482;2023-05-10T04:14:47;10.98;;;6.38;;
21152;SDS011;10734;44.792;20.482;2023-05-10T04:17:14;15.55;;;6.63;;
21152;SDS011;10734;44.792;20.482;2023-05-10T04:19:41;9.70;;;6.95;;
21152;SDS011;10734;44.792;20.482;2023-05-10T04:22:09;13.27;;;8.25;;
21152;SDS011;10734;44.792;20.482;2023-05-10T04:24:36;12.00;;;7.68;;
21152;SDS011;10734;44.792;20.482;2023-05-10T04:27:02;15.25;;;7.70;;
21152;SDS011;10734;44.792;20.482;2023-05-10T04:29:29;16.45;;;7.75;;
21152;SDS011;10734;44.792;20.482;2023-05-10T04:31:55;19.20;;;7.75;;
21152;SDS011;10734;44.792;20.482;2023-05-10T04:34:22;13.70;;;8.70;;
21152;SDS011;10734;44.792;20.482;2023-05-10T04:36:49;13.85;;;8.10;;
21152;SDS011;10734;44.792;20.482;2023-05-10T04:39:15;17.73;;;7.65;;
21152;SDS011;10734;44.792;20.482;2023-05-10T04:41:42;12.52;;;7.80;;
21152;SDS011;10734;44.792;20.482;2023-05-10T04:44:08;11.60;;;7.45;;
21152;SDS011;10734;44.792;20.482;2023-05-10T04:46:35;18.20;;;8.68;;
21152;SDS011;10734;44.792;20.482;2023-05-10T04:49:02;12.60;;;7.88;;
21152;SDS011;10734;44.792;20.482;2023-05-10T04:51:28;14.80;;;7.45;;
21152;SDS011;10734;44.792;20.482;2023-05-10T04:53:55;19.48;;;8.30;;
21152;SDS011;10734;44.792;20.482;2023-05-10T04:56:31;14.55;;;8.85;;
21152;SDS011;10734;44.792;20.482;2023-05-10T04:58:58;14.27;;;7.40;;
21152;SDS011;10734;44.792;20.482;2023-05-10T05:01:24;19.13;;;7.88;;
21152;SDS011;10734;44.792;20.482;2023-05-10T05:03:51;12.38;;;7.63;;
21152;SDS011;10734;44.792;20.482;2023-05-10T05:06:19;11.50;;;8.00;;
21152;SDS011;10734;44.792;20.482;2023-05-10T05:08:47;13.10;;;7.55;;
21152;SDS011;10734;44.792;20.482;2023-05-10T05:11:16;10.27;;;7.35;;
21152;SDS011;10734;44.792;20.482;2023-05-10T05:13:42;10.85;;;7.03;;
21152;SDS011;10734;44.792;20.482;2023-05-10T05:16:09;12.27;;;7.40;;
21152;SDS011;10734;44.792;20.482;2023-05-10T05:18:37;9.60;;;6.97;;
21152;SDS011;10734;44.792;20.482;2023-05-10T05:21:12;14.40;;;7.00;;
21152;SDS011;10734;44.792;20.482;2023-05-10T05:23:39;10.77;;;7.32;;
21152;SDS011;10734;44.792;20.482;2023-05-10T05:26:05;13.10;;;7.40;;
21152;SDS011;10734;44.792;20.482;2023-05-10T05:28:32;11.07;;;6.97;;
21152;SDS011;10734;44.792;20.482;2023-05-10T05:31:00;15.65;;;6.78;;
21152;SDS011;10734;44.792;20.482;2023-05-10T05:33:27;11.82;;;6.97;;
21152;SDS011;10734;44.792;20.482;2023-05-10T05:35:54;14.20;;;7.20;;
21152;SDS011;10734;44.792;20.482;2023-05-10T05:38:20;9.73;;;6.90;;
21152;SDS011;10734;44.792;20.482;2023-05-10T05:40:47;14.77;;;6.38;;
21152;SDS011;10734;44.792;20.482;2023-05-10T05:43:13;10.23;;;6.32;;
21152;SDS011;10734;44.792;20.482;2023-05-10T05:45:40;17.77;;;5.90;;
21152;SDS011;10734;44.792;20.482;2023-05-10T05:48:06;7.15;;;5.13;;
21152;SDS011;10734;44.792;20.482;2023-05-10T05:50:33;7.25;;;5.28;;
21152;SDS011;10734;44.792;20.482;2023-05-10T05:52:59;6.88;;;4.82;;
21152;SDS011;10734;44.792;20.482;2023-05-10T05:55:26;10.30;;;5.07;;
21152;SDS011;10734;44.792;20.482;2023-05-10T05:57:52;10.00;;;4.75;;
21152;SDS011;10734;44.792;20.482;2023-05-10T06:00:20;6.43;;;4.55;;
21152;SDS011;10734;44.792;20.482;2023-05-10T06:02:47;10.90;;;4.90;;
21152;SDS011;10734;44.792;20.482;2023-05-10T06:05:14;7.38;;;5.25;;
21152;SDS011;10734;44.792;20.482;2023-05-10T06:07:41;7.35;;;4.57;;
21152;SDS011;10734;44.792;20.482;2023-05-10T06:10:11;12.93;;;4.88;;
21152;SDS011;10734;44.792;20.482;2023-05-10T06:12:37;11.18;;;4.32;;
21152;SDS011;10734;44.792;20.482;2023-05-10T06:15:04;9.93;;;4.85;;
21152;SDS011;10734;44.792;20.482;2023-05-10T06:17:33;10.48;;;4.68;;
21152;SDS011;10734;44.792;20.482;2023-05-10T06:20:00;8.27;;;3.97;;
21152;SDS011;10734;44.792;20.482;2023-05-10T06:22:26;5.63;;;4.20;;
21152;SDS011;10734;44.792;20.482;2023-05-10T06:24:53;12.13;;;4.50;;
21152;SDS011;10734;44.792;20.482;2023-05-10T06:27:20;8.10;;;4.97;;
21152;SDS011;10734;44.792;20.482;2023-05-10T06:29:46;11.57;;;4.25;;
21152;SDS011;10734;44.792;20.482;2023-05-10T06:32:14;11.38;;;4.40;;
21152;SDS011;10734;44.792;20.482;2023-05-10T06:34:41;6.30;;;3.88;;
21152;SDS011;10734;44.792;20.482;2023-05-10T06:37:09;8.02;;;4.30;;
21152;SDS011;10734;44.792;20.482;2023-05-10T06:39:36;6.50;;;4.30;;
21152;SDS011;10734;44.792;20.482;2023-05-10T06:42:03;8.43;;;4.60;;
21152;SDS011;10734;44.792;20.482;2023-05-10T06:44:30;9.02;;;3.90;;
21152;SDS011;10734;44.792;20.482;2023-05-10T06:46:57;7.82;;;4.32;;
21152;SDS011;10734;44.792;20.482;2023-05-10T06:49:24;5.85;;;3.70;;
21152;SDS011;10734;44.792;20.482;2023-05-10T06:51:51;5.07;;;3.60;;
21152;SDS011;10734;44.792;20.482;2023-05-10T06:54:18;7.45;;;3.75;;
21152;SDS011;10734;44.792;20.482;2023-05-10T06:56:45;15.20;;;4.57;;
21152;SDS011;10734;44.792;20.482;2023-05-10T06:59:11;6.78;;;4.35;;
21152;SDS011;10734;44.792;20.482;2023-05-10T07:01:39;6.65;;;3.75;;
21152;SDS011;10734;44.792;20.482;2023-05-10T07:04:06;9.68;;;4.72;;
21152;SDS011;10734;44.792;20.482;2023-05-10T07:06:34;12.60;;;4.30;;
21152;SDS011;10734;44.792;20.482;2023-05-10T07:09:00;7.90;;;3.85;;
21152;SDS011;10734;44.792;20.482;2023-05-10T07:11:27;14.38;;;4.13;;
21152;SDS011;10734;44.792;20.482;2023-05-10T07:13:54;7.30;;;4.45;;
21152;SDS011;10734;44.792;20.482;2023-05-10T07:16:21;11.43;;;4.07;;
21152;SDS011;10734;44.792;20.482;2023-05-10T07:18:48;9.63;;;4.32;;
21152;SDS011;10734;44.792;20.482;2023-05-10T07:21:16;7.95;;;4.28;;
21152;SDS011;10734;44.792;20.482;2023-05-10T07:23:43;9.77;;;4.63;;
21152;SDS011;10734;44.792;20.482;2023-05-10T07:26:10;5.90;;;3.85;;
21152;SDS011;10734;44.792;20.482;2023-05-10T07:28:37;11.63;;;4.47;;
21152;SDS011;10734;44.792;20.482;2023-05-10T07:31:05;7.43;;;4.22;;
21152;SDS011;10734;44.792;20.482;2023-05-10T07:33:32;11.95;;;4.95;;
21152;SDS011;10734;44.792;20.482;2023-05-10T07:35:58;11.02;;;4.43;;
21152;SDS011;10734;44.792;20.482;2023-05-10T07:38:25;6.43;;;4.30;;
21152;SDS011;10734;44.792;20.482;2023-05-10T07:40:52;7.50;;;4.45;;
21152;SDS011;10734;44.792;20.482;2023-05-10T07:43:19;8.38;;;4.43;;
21152;SDS011;10734;44.792;20.482;2023-05-10T07:45:45;8.07;;;5.03;;
21152;SDS011;10734;44.792;20.482;2023-05-10T07:48:12;8.63;;;5.35;;
21152;SDS011;10734;44.792;20.482;2023-05-10T07:50:39;7.30;;;5.03;;
21152;SDS011;10734;44.792;20.482;2023-05-10T07:53:05;13.05;;;5.63;;
21152;SDS011;10734;44.792;20.482;2023-05-10T07:55:32;14.25;;;5.40;;
21152;SDS011;10734;44.792;20.482;2023-05-10T07:57:59;10.38;;;5.10;;
21152;SDS011;10734;44.792;20.482;2023-05-10T08:00:27;7.28;;;3.80;;
21152;SDS011;10734;44.792;20.482;2023-05-10T08:02:54;10.15;;;4.68;;
21152;SDS011;10734;44.792;20.482;2023-05-10T08:05:21;8.63;;;5.00;;
21152;SDS011;10734;44.792;20.482;2023-05-10T08:07:47;7.28;;;4.75;;
21152;SDS011;10734;44.792;20.482;2023-05-10T08:10:14;9.77;;;4.47;;
21152;SDS011;10734;44.792;20.482;2023-05-10T08:12:41;8.43;;;4.25;;
21152;SDS011;10734;44.792;20.482;2023-05-10T08:15:08;7.85;;;4.10;;
21152;SDS011;10734;44.792;20.482;2023-05-10T08:17:35;8.68;;;3.70;;
21152;SDS011;10734;44.792;20.482;2023-05-10T08:20:02;7.10;;;3.45;;
21152;SDS011;10734;44.792;20.482;2023-05-10T08:22:31;6.38;;;3.53;;
21152;SDS011;10734;44.792;20.482;2023-05-10T08:24:58;13.77;;;3.85;;
21152;SDS011;10734;44.792;20.482;2023-05-10T08:27:25;6.45;;;3.38;;
21152;SDS011;10734;44.792;20.482;2023-05-10T08:29:52;6.22;;;3.20;;
21152;SDS011;10734;44.792;20.482;2023-05-10T08:32:18;10.80;;;3.40;;
21152;SDS011;10734;44.792;20.482;2023-05-10T08:34:45;6.60;;;3.30;;
21152;SDS011;10734;44.792;20.482;2023-05-10T08:37:12;7.03;;;3.38;;
21152;SDS011;10734;44.792;20.482;2023-05-10T08:39:39;6.65;;;3.80;;
21152;SDS011;10734;44.792;20.482;2023-05-10T08:42:06;3.85;;;3.00;;
21152;SDS011;10734;44.792;20.482;2023-05-10T08:44:35;10.60;;;3.40;;
21152;SDS011;10734;44.792;20.482;2023-05-10T08:47:05;3.83;;;3.10;;
21152;SDS011;10734;44.792;20.482;2023-05-10T08:49:33;4.10;;;3.28;;
21152;SDS011;10734;44.792;20.482;2023-05-10T08:52:02;4.75;;;2.80;;
21152;SDS011;10734;44.792;20.482;2023-05-10T08:54:33;6.22;;;3.10;;
21152;SDS011;10734;44.792;20.482;2023-05-10T08:57:01;6.00;;;3.20;;
21152;SDS011;10734;44.792;20.482;2023-05-10T08:59:28;7.25;;;2.78;;
21152;SDS011;10734;44.792;20.482;2023-05-10T09:01:55;7.80;;;2.63;;
21152;SDS011;10734;44.792;20.482;2023-05-10T09:04:24;6.78;;;3.45;;
21152;SDS011;10734;44.792;20.482;2023-05-10T09:06:52;7.25;;;2.60;;
21152;SDS011;10734;44.792;20.482;2023-05-10T09:09:19;5.47;;;3.28;;
21152;SDS011;10734;44.792;20.482;2023-05-10T09:11:46;5.07;;;3.08;;
21152;SDS011;10734;44.792;20.482;2023-05-10T09:14:14;7.32;;;2.78;;
21152;SDS011;10734;44.792;20.482;2023-05-10T09:16:41;11.05;;;2.95;;
21152;SDS011;10734;44.792;20.482;2023-05-10T09:19:09;6.32;;;2.85;;
21152;SDS011;10734;44.792;20.482;2023-05-10T09:21:35;6.85;;;3.28;;
21152;SDS011;10734;44.792;20.482;2023-05-10T09:24:06;5.55;;;2.97;;
21152;SDS011;10734;44.792;20.482;2023-05-10T09:26:34;9.45;;;2.78;;
21152;SDS011;10734;44.792;20.482;2023-05-10T09:29:02;8.35;;;2.80;;
21152;SDS011;10734;44.792;20.482;2023-05-10T09:31:49;8.43;;;3.00;;
21152;SDS011;10734;44.792;20.482;2023-05-10T09:34:28;6.20;;;3.03;;
21152;SDS011;10734;44.792;20.482;2023-05-10T09:36:56;4.40;;;2.80;;
21152;SDS011;10734;44.792;20.482;2023-05-10T09:39:30;4.30;;;2.97;;
21152;SDS011;10734;44.792;20.482;2023-05-10T09:42:03;5.47;;;2.47;;
21152;SDS011;10734;44.792;20.482;2023-05-10T09:44:31;9.23;;;2.67;;
21152;SDS011;10734;44.792;20.482;2023-05-10T09:46:59;6.68;;;2.92;;
21152;SDS011;10734;44.792;20.482;2023-05-10T09:49:27;8.65;;;2.88;;
21152;SDS011;10734;44.792;20.482;2023-05-10T09:51:59;3.45;;;2.60;;
21152;SDS011;10734;44.792;20.482;2023-05-10T09:54:30;7.28;;;2.30;;
21152;SDS011;10734;44.792;20.482;2023-05-10T09:56:57;3.35;;;2.25;;
21152;SDS011;10734;44.792;20.482;2023-05-10T09:59:25;4.80;;;2.67;;
21152;SDS011;10734;44.792;20.482;2023-05-10T10:01:57;6.15;;;3.80;;
21152;SDS011;10734;44.792;20.482;2023-05-10T10:04:24;4.32;;;2.90;;
21152;SDS011;10734;44.792;20.482;2023-05-10T10:07:02;8.35;;;2.90;;
21152;SDS011;10734;44.792;20.482;2023-05-10T10:09:30;11.93;;;2.42;;
21152;SDS011;10734;44.792;20.482;2023-05-10T10:11:57;5.10;;;2.60;;
21152;SDS011;10734;44.792;20.482;2023-05-10T10:14:25;8.10;;;2.50;;
21152;SDS011;10734;44.792;20.482;2023-05-10T10:16:52;8.10;;;2.30;;
21152;SDS011;10734;44.792;20.482;2023-05-10T10:19:35;6.38;;;2.95;;
21152;SDS011;10734;44.792;20.482;2023-05-10T10:22:03;7.63;;;2.10;;
21152;SDS011;10734;44.792;20.482;2023-05-10T10:24:30;8.52;;;1.98;;
21152;SDS011;10734;44.792;20.482;2023-05-10T10:27:00;6.18;;;2.45;;
21152;SDS011;10734;44.792;20.482;2023-05-10T10:29:48;4.60;;;2.25;;
21152;SDS011;10734;44.792;20.482;2023-05-10T10:32:38;7.97;;;2.70;;
21152;SDS011;10734;44.792;20.482;2023-05-10T10:35:21;2.95;;;1.95;;
21152;SDS011;10734;44.792;20.482;2023-05-10T10:37:50;9.55;;;2.20;;
21152;SDS011;10734;44.792;20.482;2023-05-10T10:40:24;3.88;;;2.28;;
21152;SDS011;10734;44.792;20.482;2023-05-10T10:42:52;3.83;;;2.08;;
21152;SDS011;10734;44.792;20.482;2023-05-10T10:45:20;4.70;;;2.33;;
21152;SDS011;10734;44.792;20.482;2023-05-10T10:47:47;6.97;;;1.80;;
21152;SDS011;10734;44.792;20.482;2023-05-10T10:50:14;3.83;;;1.85;;
21152;SDS011;10734;44.792;20.482;2023-05-10T10:52:43;9.00;;;2.63;;
21152;SDS011;10734;44.792;20.482;2023-05-10T10:55:19;4.75;;;2.17;;
21152;SDS011;10734;44.792;20.482;2023-05-10T11:00:30;5.97;;;1.92;;
21152;SDS011;10734;44.792;20.482;2023-05-10T11:03:04;7.25;;;2.00;;
21152;SDS011;10734;44.792;20.482;2023-05-10T11:05:45;4.37;;;2.00;;
21152;SDS011;10734;44.792;20.482;2023-05-10T11:10:52;2.58;;;1.73;;
21152;SDS011;10734;44.792;20.482;2023-05-10T11:13:26;4.03;;;1.80;;
21152;SDS011;10734;44.792;20.482;2023-05-10T11:16:11;2.90;;;1.58;;
21152;SDS011;10734;44.792;20.482;2023-05-10T11:18:39;3.70;;;1.40;;
21152;SDS011;10734;44.792;20.482;2023-05-10T11:21:08;5.28;;;1.60;;
21152;SDS011;10734;44.792;20.482;2023-05-10T11:26:07;4.72;;;1.95;;
21152;SDS011;10734;44.792;20.482;2023-05-10T11:28:41;3.97;;;1.48;;
21152;SDS011;10734;44.792;20.482;2023-05-10T11:31:08;5.67;;;2.10;;
21152;SDS011;10734;44.792;20.482;2023-05-10T11:33:51;6.50;;;1.70;;
21152;SDS011;10734;44.792;20.482;2023-05-10T11:36:20;2.40;;;1.70;;
21152;SDS011;10734;44.792;20.482;2023-05-10T11:38:49;8.98;;;2.17;;
21152;SDS011;10734;44.792;20.482;2023-05-10T11:41:17;5.22;;;1.80;;
21152;SDS011;10734;44.792;20.482;2023-05-10T11:43:52;6.90;;;1.80;;
21152;SDS011;10734;44.792;20.482;2023-05-10T11:46:20;4.13;;;2.13;;
21152;SDS011;10734;44.792;20.482;2023-05-10T11:48:49;1.75;;;1.45;;
21152;SDS011;10734;44.792;20.482;2023-05-10T11:51:23;7.65;;;1.65;;
21152;SDS011;10734;44.792;20.482;2023-05-10T11:53:54;5.43;;;1.42;;
21152;SDS011;10734;44.792;20.482;2023-05-10T11:56:22;5.70;;;1.70;;
21152;SDS011;10734;44.792;20.482;2023-05-10T11:58:56;3.40;;;1.77;;
21152;SDS011;10734;44.792;20.482;2023-05-10T12:01:24;3.58;;;1.83;;
21152;SDS011;10734;44.792;20.482;2023-05-10T12:03:53;2.55;;;1.70;;
21152;SDS011;10734;44.792;20.482;2023-05-10T12:06:22;5.95;;;1.80;;
21152;SDS011;10734;44.792;20.482;2023-05-10T12:08:52;3.65;;;2.28;;
21152;SDS011;10734;44.792;20.482;2023-05-10T12:11:20;1.83;;;1.20;;
21152;SDS011;10734;44.792;20.482;2023-05-10T12:16:18;3.20;;;1.85;;
21152;SDS011;10734;44.792;20.482;2023-05-10T12:18:50;4.97;;;1.63;;
21152;SDS011;10734;44.792;20.482;2023-05-10T12:21:18;3.75;;;1.70;;
21152;SDS011;10734;44.792;20.482;2023-05-10T12:23:46;3.58;;;1.70;;
21152;SDS011;10734;44.792;20.482;2023-05-10T12:26:14;3.20;;;1.90;;
21152;SDS011;10734;44.792;20.482;2023-05-10T12:28:41;5.43;;;1.80;;
21152;SDS011;10734;44.792;20.482;2023-05-10T12:31:08;4.20;;;1.83;;
21152;SDS011;10734;44.792;20.482;2023-05-10T12:33:43;2.15;;;1.60;;
21152;SDS011;10734;44.792;20.482;2023-05-10T12:36:14;5.95;;;1.70;;
21152;SDS011;10734;44.792;20.482;2023-05-10T12:38:43;4.00;;;2.10;;
21152;SDS011;10734;44.792;20.482;2023-05-10T12:41:15;5.05;;;2.00;;
21152;SDS011;10734;44.792;20.482;2023-05-10T12:43:43;2.45;;;1.85;;
21152;SDS011;10734;44.792;20.482;2023-05-10T12:46:12;5.82;;;1.80;;
21152;SDS011;10734;44.792;20.482;2023-05-10T12:48:41;2.75;;;1.55;;
21152;SDS011;10734;44.792;20.482;2023-05-10T12:51:09;2.15;;;1.40;;
21152;SDS011;10734;44.792;20.482;2023-05-10T12:53:40;6.20;;;1.60;;
21152;SDS011;10734;44.792;20.482;2023-05-10T12:56:09;2.08;;;1.83;;
21152;SDS011;10734;44.792;20.482;2023-05-10T12:58:36;2.10;;;1.48;;
21152;SDS011;10734;44.792;20.482;2023-05-10T13:01:04;2.17;;;1.67;;
21152;SDS011;10734;44.792;20.482;2023-05-10T13:03:31;5.47;;;1.67;;
21152;SDS011;10734;44.792;20.482;2023-05-10T13:05:58;7.65;;;2.17;;
21152;SDS011;10734;44.792;20.482;2023-05-10T13:08:25;6.70;;;1.67;;
21152;SDS011;10734;44.792;20.482;2023-05-10T13:10:51;4.72;;;1.92;;
21152;SDS011;10734;44.792;20.482;2023-05-10T13:13:18;2.80;;;1.63;;
21152;SDS011;10734;44.792;20.482;2023-05-10T13:15:45;4.93;;;1.50;;
21152;SDS011;10734;44.792;20.482;2023-05-10T13:18:12;2.70;;;1.67;;
21152;SDS011;10734;44.792;20.482;2023-05-10T13:20:38;4.88;;;1.60;;
21152;SDS011;10734;44.792;20.482;2023-05-10T13:23:05;9.02;;;2.05;;
21152;SDS011;10734;44.792;20.482;2023-05-10T13:25:32;4.55;;;1.92;;
21152;SDS011;10734;44.792;20.482;2023-05-10T13:28:00;2.05;;;1.67;;
21152;SDS011;10734;44.792;20.482;2023-05-10T13:30:27;2.55;;;1.83;;
21152;SDS011;10734;44.792;20.482;2023-05-10T13:32:55;2.88;;;1.77;;
21152;SDS011;10734;44.792;20.482;2023-05-10T13:35:21;4.60;;;1.85;;
21152;SDS011;10734;44.792;20.482;2023-05-10T13:37:48;5.13;;;2.00;;
21152;SDS011;10734;44.792;20.482;2023-05-10T13:40:15;3.28;;;1.88;;
21152;SDS011;10734;44.792;20.482;2023-05-10T13:42:42;3.47;;;1.27;;
21152;SDS011;10734;44.792;20.482;2023-05-10T13:45:09;4.32;;;1.70;;
21152;SDS011;10734;44.792;20.482;2023-05-10T13:47:38;3.78;;;1.80;;
21152;SDS011;10734;44.792;20.482;2023-05-10T13:50:05;5.53;;;1.75;;
21152;SDS011;10734;44.792;20.482;2023-05-10T13:52:33;2.45;;;1.55;;
21152;SDS011;10734;44.792;20.482;2023-05-10T13:54:59;4.45;;;1.75;;
21152;SDS011;10734;44.792;20.482;2023-05-10T13:57:26;10.55;;;1.70;;
21152;SDS011;10734;44.792;20.482;2023-05-10T13:59:53;3.35;;;2.00;;
21152;SDS011;10734;44.792;20.482;2023-05-10T14:02:21;5.93;;;1.67;;
21152;SDS011;10734;44.792;20.482;2023-05-10T14:04:47;5.00;;;1.35;;
21152;SDS011;10734;44.792;20.482;2023-05-10T14:07:14;4.05;;;1.70;;
21152;SDS011;10734;44.792;20.482;2023-05-10T14:09:41;2.38;;;1.48;;
21152;SDS011;10734;44.792;20.482;2023-05-10T14:12:07;6.53;;;1.95;;
21152;SDS011;10734;44.792;20.482;2023-05-10T14:14:34;8.77;;;1.83;;
21152;SDS011;10734;44.792;20.482;2023-05-10T14:17:01;3.25;;;1.65;;
21152;SDS011;10734;44.792;20.482;2023-05-10T14:19:28;6.13;;;1.75;;
21152;SDS011;10734;44.792;20.482;2023-05-10T14:21:56;4.45;;;2.03;;
21152;SDS011;10734;44.792;20.482;2023-05-10T14:24:23;5.15;;;1.55;;
21152;SDS011;10734;44.792;20.482;2023-05-10T14:26:50;2.30;;;1.60;;
21152;SDS011;10734;44.792;20.482;2023-05-10T14:29:20;2.58;;;1.65;;
21152;SDS011;10734;44.792;20.482;2023-05-10T14:31:47;7.10;;;1.60;;
21152;SDS011;10734;44.792;20.482;2023-05-10T14:34:14;4.30;;;1.70;;
21152;SDS011;10734;44.792;20.482;2023-05-10T14:36:41;2.20;;;1.42;;
21152;SDS011;10734;44.792;20.482;2023-05-10T14:39:07;2.65;;;1.75;;
21152;SDS011;10734;44.792;20.482;2023-05-10T14:41:36;1.85;;;1.40;;
21152;SDS011;10734;44.792;20.482;2023-05-10T14:44:03;2.17;;;1.70;;
21152;SDS011;10734;44.792;20.482;2023-05-10T14:46:30;2.45;;;1.58;;
21152;SDS011;10734;44.792;20.482;2023-05-10T14:48:57;2.70;;;1.20;;
21152;SDS011;10734;44.792;20.482;2023-05-10T14:51:24;4.35;;;1.80;;
21152;SDS011;10734;44.792;20.482;2023-05-10T14:53:51;3.17;;;2.30;;
21152;SDS011;10734;44.792;20.482;2023-05-10T14:56:18;4.13;;;1.73;;
21152;SDS011;10734;44.792;20.482;2023-05-10T14:58:44;2.65;;;1.73;;
21152;SDS011;10734;44.792;20.482;2023-05-10T15:01:11;2.13;;;1.75;;
21152;SDS011;10734;44.792;20.482;2023-05-10T15:03:38;5.40;;;1.80;;
21152;SDS011;10734;44.792;20.482;2023-05-10T15:06:05;3.10;;;1.85;;
21152;SDS011;10734;44.792;20.482;2023-05-10T15:08:32;8.30;;;1.80;;
21152;SDS011;10734;44.792;20.482;2023-05-10T15:10:58;1.67;;;1.52;;
21152;SDS011;10734;44.792;20.482;2023-05-10T15:13:25;3.75;;;1.90;;